sensor_id;sensor_type;location;lat;lon;timestamp;temperature;humidity
8707;DHT22;4390;49.302;9.306;2022-12-28T00:01:45;0.70;98.10
8707;DHT22;4390;49.302;9.306;2022-12-28T00:04:12;0.80;97.80
8707;DHT22;4390;49.302;9.306;2022-12-28T00:06:40;0.60;97.80
8707;DHT22;4390;49.302;9.306;2022-12-28T00:09:09;0.40;98.30
8707;DHT22;4390;49.302;9.306;2022-12-28T00:11:37;0.30;98.30
8707;DHT22;4390;49.302;9.306;2022-12-28T00:14:03;0.50;98.30
8707;DHT22;4390;49.302;9.306;2022-12-28T00:16:32;0.60;98.10
8707;DHT22;4390;49.302;9.306;2022-12-28T00:19:02;0.40;98.30
8707;DHT22;4390;49.302;9.306;2022-12-28T00:21:29;0.50;98.30
8707;DHT22;4390;49.302;9.306;2022-12-28T00:23:57;0.50;98.30
8707;DHT22;4390;49.302;9.306;2022-12-28T00:26:29;0.60;98.30
8707;DHT22;4390;49.302;9.306;2022-12-28T00:28:57;0.40;98.30
8707;DHT22;4390;49.302;9.306;2022-12-28T00:31:31;0.50;98.30
8707;DHT22;4390;49.302;9.306;2022-12-28T00:33:58;0.40;98.30
8707;DHT22;4390;49.302;9.306;2022-12-28T00:36:25;0.50;98.30
8707;DHT22;4390;49.302;9.306;2022-12-28T00:39:12;0.50;98.30
8707;DHT22;4390;49.302;9.306;2022-12-28T00:41:38;0.50;98.30
8707;DHT22;4390;49.302;9.306;2022-12-28T00:44:07;0.60;98.30
8707;DHT22;4390;49.302;9.306;2022-12-28T00:46:34;0.60;98.30
8707;DHT22;4390;49.302;9.306;2022-12-28T00:49:00;0.50;98.30
8707;DHT22;4390;49.302;9.306;2022-12-28T00:51:27;0.70;98.30
8707;DHT22;4390;49.302;9.306;2022-12-28T00:53:54;0.60;98.30
8707;DHT22;4390;49.302;9.306;2022-12-28T00:56:21;0.60;98.30
8707;DHT22;4390;49.302;9.306;2022-12-28T00:58:48;0.70;98.20
8707;DHT22;4390;49.302;9.306;2022-12-28T01:01:20;0.80;98.20
8707;DHT22;4390;49.302;9.306;2022-12-28T01:03:49;0.90;97.80
8707;DHT22;4390;49.302;9.306;2022-12-28T01:06:18;0.80;98.00
8707;DHT22;4390;49.302;9.306;2022-12-28T01:08:45;0.70;98.30
8707;DHT22;4390;49.302;9.306;2022-12-28T01:11:24;0.70;98.30
8707;DHT22;4390;49.302;9.306;2022-12-28T01:13:53;0.80;98.30
8707;DHT22;4390;49.302;9.306;2022-12-28T01:18:52;1.10;97.60
8707;DHT22;4390;49.302;9.306;2022-12-28T01:21:21;1.00;97.70
8707;DHT22;4390;49.302;9.306;2022-12-28T01:23:51;1.00;97.70
8707;DHT22;4390;49.302;9.306;2022-12-28T01:26:18;1.00;98.10
8707;DHT22;4390;49.302;9.306;2022-12-28T01:28:45;0.90;98.30
8707;DHT22;4390;49.302;9.306;2022-12-28T01:31:14;1.00;98.30
8707;DHT22;4390;49.302;9.306;2022-12-28T01:33:41;1.10;98.10
8707;DHT22;4390;49.302;9.306;2022-12-28T01:36:14;1.00;98.20
8707;DHT22;4390;49.302;9.306;2022-12-28T01:38:42;1.10;97.90
8707;DHT22;4390;49.302;9.306;2022-12-28T01:41:11;1.10;98.20
8707;DHT22;4390;49.302;9.306;2022-12-28T01:43:43;1.20;97.80
8707;DHT22;4390;49.302;9.306;2022-12-28T01:46:17;1.20;97.70
8707;DHT22;4390;49.302;9.306;2022-12-28T01:48:56;1.20;97.70
8707;DHT22;4390;49.302;9.306;2022-12-28T01:51:28;1.20;97.60
8707;DHT22;4390;49.302;9.306;2022-12-28T01:53:59;1.10;97.90
8707;DHT22;4390;49.302;9.306;2022-12-28T01:56:27;1.10;98.30
8707;DHT22;4390;49.302;9.306;2022-12-28T01:58:54;1.30;98.20
8707;DHT22;4390;49.302;9.306;2022-12-28T02:01:22;1.20;98.00
8707;DHT22;4390;49.302;9.306;2022-12-28T02:03:49;1.20;97.70
8707;DHT22;4390;49.302;9.306;2022-12-28T02:06:17;1.20;97.90
8707;DHT22;4390;49.302;9.306;2022-12-28T02:09:03;1.20;98.10
8707;DHT22;4390;49.302;9.306;2022-12-28T02:11:33;1.30;98.00
8707;DHT22;4390;49.302;9.306;2022-12-28T02:14:01;1.40;97.60
8707;DHT22;4390;49.302;9.306;2022-12-28T02:16:28;1.30;97.80
8707;DHT22;4390;49.302;9.306;2022-12-28T02:18:55;1.50;97.50
8707;DHT22;4390;49.302;9.306;2022-12-28T02:21:37;1.50;97.50
8707;DHT22;4390;49.302;9.306;2022-12-28T02:28:35;1.50;97.50
8707;DHT22;4390;49.302;9.306;2022-12-28T02:31:13;1.30;98.00
8707;DHT22;4390;49.302;9.306;2022-12-28T02:33:50;1.30;98.30
8707;DHT22;4390;49.302;9.306;2022-12-28T02:36:25;1.30;98.30
8707;DHT22;4390;49.302;9.306;2022-12-28T02:38:58;1.30;98.20
8707;DHT22;4390;49.302;9.306;2022-12-28T02:41:29;1.40;98.20
8707;DHT22;4390;49.302;9.306;2022-12-28T02:43:59;1.50;98.00
8707;DHT22;4390;49.302;9.306;2022-12-28T02:46:30;1.50;98.00
8707;DHT22;4390;49.302;9.306;2022-12-28T02:49:27;1.60;97.80
8707;DHT22;4390;49.302;9.306;2022-12-28T02:52:31;1.60;97.80
8707;DHT22;4390;49.302;9.306;2022-12-28T02:59:08;1.50;98.10
8707;DHT22;4390;49.302;9.306;2022-12-28T03:04:27;1.60;97.60
8707;DHT22;4390;49.302;9.306;2022-12-28T03:12:32;1.50;98.20
8707;DHT22;4390;49.302;9.306;2022-12-28T03:15:07;1.60;98.10
8707;DHT22;4390;49.302;9.306;2022-12-28T03:17:39;1.40;98.30
8707;DHT22;4390;49.302;9.306;2022-12-28T03:20:29;1.30;98.30
8707;DHT22;4390;49.302;9.306;2022-12-28T03:23:18;1.40;98.30
8707;DHT22;4390;49.302;9.306;2022-12-28T03:26:08;1.70;98.10
8707;DHT22;4390;49.302;9.306;2022-12-28T03:28:58;1.70;97.60
8707;DHT22;4390;49.302;9.306;2022-12-28T03:31:45;1.60;97.90
8707;DHT22;4390;49.302;9.306;2022-12-28T03:34:14;1.40;98.10
8707;DHT22;4390;49.302;9.306;2022-12-28T03:39:39;1.50;98.30
8707;DHT22;4390;49.302;9.306;2022-12-28T03:42:20;1.30;98.30
8707;DHT22;4390;49.302;9.306;2022-12-28T03:46:12;1.30;98.30
8707;DHT22;4390;49.302;9.306;2022-12-28T03:48:14;1.40;98.30
8707;DHT22;4390;49.302;9.306;2022-12-28T03:50:44;1.70;98.30
8707;DHT22;4390;49.302;9.306;2022-12-28T03:53:15;1.60;98.10
8707;DHT22;4390;49.302;9.306;2022-12-28T03:55:43;1.70;98.20
8707;DHT22;4390;49.302;9.306;2022-12-28T03:58:12;1.50;98.30
8707;DHT22;4390;49.302;9.306;2022-12-28T04:00:38;1.70;98.30
8707;DHT22;4390;49.302;9.306;2022-12-28T04:03:06;1.60;98.30
8707;DHT22;4390;49.302;9.306;2022-12-28T04:05:33;1.80;97.90
8707;DHT22;4390;49.302;9.306;2022-12-28T04:08:00;1.60;98.10
8707;DHT22;4390;49.302;9.306;2022-12-28T04:10:27;1.70;98.20
8707;DHT22;4390;49.302;9.306;2022-12-28T04:12:55;1.90;98.00
8707;DHT22;4390;49.302;9.306;2022-12-28T04:15:27;1.80;98.10
8707;DHT22;4390;49.302;9.306;2022-12-28T04:17:54;1.60;98.30
8707;DHT22;4390;49.302;9.306;2022-12-28T04:20:22;1.50;98.30
8707;DHT22;4390;49.302;9.306;2022-12-28T04:22:49;1.40;98.30
8707;DHT22;4390;49.302;9.306;2022-12-28T04:25:16;1.40;98.30
8707;DHT22;4390;49.302;9.306;2022-12-28T04:27:43;1.60;98.30
8707;DHT22;4390;49.302;9.306;2022-12-28T04:30:28;1.70;98.30
8707;DHT22;4390;49.302;9.306;2022-12-28T04:32:55;1.80;98.30
8707;DHT22;4390;49.302;9.306;2022-12-28T04:35:21;1.90;98.30
8707;DHT22;4390;49.302;9.306;2022-12-28T04:37:49;2.00;98.30
8707;DHT22;4390;49.302;9.306;2022-12-28T04:40:15;2.20;98.20
8707;DHT22;4390;49.302;9.306;2022-12-28T04:42:42;2.20;98.00
8707;DHT22;4390;49.302;9.306;2022-12-28T04:45:09;2.20;97.80
8707;DHT22;4390;49.302;9.306;2022-12-28T04:47:35;2.20;97.90
8707;DHT22;4390;49.302;9.306;2022-12-28T04:50:02;2.00;98.10
8707;DHT22;4390;49.302;9.306;2022-12-28T04:52:29;1.90;98.30
8707;DHT22;4390;49.302;9.306;2022-12-28T04:54:55;1.80;98.30
8707;DHT22;4390;49.302;9.306;2022-12-28T04:57:22;1.90;98.30
8707;DHT22;4390;49.302;9.306;2022-12-28T04:59:49;1.80;98.30
8707;DHT22;4390;49.302;9.306;2022-12-28T05:02:15;1.80;98.30
8707;DHT22;4390;49.302;9.306;2022-12-28T05:04:42;1.70;98.30
8707;DHT22;4390;49.302;9.306;2022-12-28T05:07:09;1.80;98.30
8707;DHT22;4390;49.302;9.306;2022-12-28T05:09:36;1.80;98.30
8707;DHT22;4390;49.302;9.306;2022-12-28T05:12:02;1.60;98.30
8707;DHT22;4390;49.302;9.306;2022-12-28T05:14:29;1.70;98.30
8707;DHT22;4390;49.302;9.306;2022-12-28T05:17:02;1.80;98.30
8707;DHT22;4390;49.302;9.306;2022-12-28T05:19:29;1.80;98.30
8707;DHT22;4390;49.302;9.306;2022-12-28T05:21:56;1.70;98.30
8707;DHT22;4390;49.302;9.306;2022-12-28T05:24:22;1.80;98.30
8707;DHT22;4390;49.302;9.306;2022-12-28T05:26:49;1.80;98.30
8707;DHT22;4390;49.302;9.306;2022-12-28T05:29:16;2.00;98.30
8707;DHT22;4390;49.302;9.306;2022-12-28T05:31:42;2.00;98.30
8707;DHT22;4390;49.302;9.306;2022-12-28T05:34:09;1.90;98.30
8707;DHT22;4390;49.302;9.306;2022-12-28T05:36:36;2.00;98.30
8707;DHT22;4390;49.302;9.306;2022-12-28T05:39:05;1.90;98.30
8707;DHT22;4390;49.302;9.306;2022-12-28T05:41:31;1.80;98.30
8707;DHT22;4390;49.302;9.306;2022-12-28T05:43:58;1.80;98.30
8707;DHT22;4390;49.302;9.306;2022-12-28T05:46:31;1.80;98.30
8707;DHT22;4390;49.302;9.306;2022-12-28T05:48:58;1.80;98.30
8707;DHT22;4390;49.302;9.306;2022-12-28T05:51:27;1.90;98.30
8707;DHT22;4390;49.302;9.306;2022-12-28T05:53:55;1.90;98.30
8707;DHT22;4390;49.302;9.306;2022-12-28T05:56:24;2.10;98.30
8707;DHT22;4390;49.302;9.306;2022-12-28T05:58:53;2.10;98.30
8707;DHT22;4390;49.302;9.306;2022-12-28T06:01:22;2.00;98.30
8707;DHT22;4390;49.302;9.306;2022-12-28T06:03:55;2.10;98.30
8707;DHT22;4390;49.302;9.306;2022-12-28T06:06:23;2.00;98.30
8707;DHT22;4390;49.302;9.306;2022-12-28T06:08:50;2.20;98.30
8707;DHT22;4390;49.302;9.306;2022-12-28T06:11:19;2.10;98.30
8707;DHT22;4390;49.302;9.306;2022-12-28T06:13:46;2.10;98.30
8707;DHT22;4390;49.302;9.306;2022-12-28T06:16:16;2.10;98.30
8707;DHT22;4390;49.302;9.306;2022-12-28T06:18:43;2.10;98.30
8707;DHT22;4390;49.302;9.306;2022-12-28T06:21:13;2.00;98.30
8707;DHT22;4390;49.302;9.306;2022-12-28T06:23:40;2.20;98.30
8707;DHT22;4390;49.302;9.306;2022-12-28T06:26:08;2.30;98.30
8707;DHT22;4390;49.302;9.306;2022-12-28T06:28:36;2.20;98.30
8707;DHT22;4390;49.302;9.306;2022-12-28T06:31:05;2.30;98.30
8707;DHT22;4390;49.302;9.306;2022-12-28T06:33:33;2.40;98.30
8707;DHT22;4390;49.302;9.306;2022-12-28T06:36:01;2.20;98.30
8707;DHT22;4390;49.302;9.306;2022-12-28T06:38:28;2.20;98.30
8707;DHT22;4390;49.302;9.306;2022-12-28T06:41:02;2.10;98.30
8707;DHT22;4390;49.302;9.306;2022-12-28T06:43:40;2.00;98.30
8707;DHT22;4390;49.302;9.306;2022-12-28T06:46:08;2.10;98.30
8707;DHT22;4390;49.302;9.306;2022-12-28T06:48:35;2.00;98.30
8707;DHT22;4390;49.302;9.306;2022-12-28T06:51:03;2.00;98.30
8707;DHT22;4390;49.302;9.306;2022-12-28T06:53:32;2.10;98.30
8707;DHT22;4390;49.302;9.306;2022-12-28T06:56:02;2.30;98.30
8707;DHT22;4390;49.302;9.306;2022-12-28T06:58:29;2.50;98.30
8707;DHT22;4390;49.302;9.306;2022-12-28T07:00:57;2.40;98.30
8707;DHT22;4390;49.302;9.306;2022-12-28T07:03:30;2.30;98.30
8707;DHT22;4390;49.302;9.306;2022-12-28T07:06:01;2.40;98.30
8707;DHT22;4390;49.302;9.306;2022-12-28T07:08:28;2.20;98.30
8707;DHT22;4390;49.302;9.306;2022-12-28T07:11:04;2.30;98.30
8707;DHT22;4390;49.302;9.306;2022-12-28T07:13:32;2.40;98.30
8707;DHT22;4390;49.302;9.306;2022-12-28T07:16:16;2.40;98.30
8707;DHT22;4390;49.302;9.306;2022-12-28T07:18:43;2.30;98.30
8707;DHT22;4390;49.302;9.306;2022-12-28T07:21:14;2.10;98.30
8707;DHT22;4390;49.302;9.306;2022-12-28T07:23:41;2.10;98.30
8707;DHT22;4390;49.302;9.306;2022-12-28T07:26:13;2.30;98.30
8707;DHT22;4390;49.302;9.306;2022-12-28T07:28:45;2.30;98.30
8707;DHT22;4390;49.302;9.306;2022-12-28T07:31:17;2.30;98.30
8707;DHT22;4390;49.302;9.306;2022-12-28T07:33:45;2.30;98.30
8707;DHT22;4390;49.302;9.306;2022-12-28T07:36:14;2.30;98.30
8707;DHT22;4390;49.302;9.306;2022-12-28T07:38:42;2.30;98.30
8707;DHT22;4390;49.302;9.306;2022-12-28T07:41:17;2.30;98.30
8707;DHT22;4390;49.302;9.306;2022-12-28T07:43:44;2.50;98.30
8707;DHT22;4390;49.302;9.306;2022-12-28T07:46:19;2.50;98.30
8707;DHT22;4390;49.302;9.306;2022-12-28T07:48:46;2.40;98.30
8707;DHT22;4390;49.302;9.306;2022-12-28T07:51:19;2.40;98.30
8707;DHT22;4390;49.302;9.306;2022-12-28T07:53:48;2.30;98.30
8707;DHT22;4390;49.302;9.306;2022-12-28T07:56:16;2.40;98.30
8707;DHT22;4390;49.302;9.306;2022-12-28T07:58:47;2.40;98.30
8707;DHT22;4390;49.302;9.306;2022-12-28T08:01:14;2.40;98.30
8707;DHT22;4390;49.302;9.306;2022-12-28T08:03:43;2.50;98.30
8707;DHT22;4390;49.302;9.306;2022-12-28T08:06:12;2.40;98.30
8707;DHT22;4390;49.302;9.306;2022-12-28T08:08:42;2.60;98.30
8707;DHT22;4390;49.302;9.306;2022-12-28T08:11:14;2.50;98.30
8707;DHT22;4390;49.302;9.306;2022-12-28T08:13:43;2.60;98.30
8707;DHT22;4390;49.302;9.306;2022-12-28T08:16:12;2.50;98.30
8707;DHT22;4390;49.302;9.306;2022-12-28T08:18:39;2.50;98.30
8707;DHT22;4390;49.302;9.306;2022-12-28T08:21:18;2.40;98.30
8707;DHT22;4390;49.302;9.306;2022-12-28T08:23:46;2.50;98.30
8707;DHT22;4390;49.302;9.306;2022-12-28T08:26:17;2.60;98.30
8707;DHT22;4390;49.302;9.306;2022-12-28T08:28:46;2.60;98.30
8707;DHT22;4390;49.302;9.306;2022-12-28T08:31:24;2.80;98.30
8707;DHT22;4390;49.302;9.306;2022-12-28T08:33:53;3.00;98.30
8707;DHT22;4390;49.302;9.306;2022-12-28T08:36:20;3.00;98.30
8707;DHT22;4390;49.302;9.306;2022-12-28T08:38:48;3.20;98.30
8707;DHT22;4390;49.302;9.306;2022-12-28T08:41:17;3.20;98.30
8707;DHT22;4390;49.302;9.306;2022-12-28T08:43:44;3.20;98.30
8707;DHT22;4390;49.302;9.306;2022-12-28T08:46:14;3.10;98.30
8707;DHT22;4390;49.302;9.306;2022-12-28T08:48:46;3.30;98.30
8707;DHT22;4390;49.302;9.306;2022-12-28T08:51:16;3.30;98.30
8707;DHT22;4390;49.302;9.306;2022-12-28T08:53:43;3.10;98.30
8707;DHT22;4390;49.302;9.306;2022-12-28T08:56:12;3.10;98.30
8707;DHT22;4390;49.302;9.306;2022-12-28T08:58:40;3.00;98.30
8707;DHT22;4390;49.302;9.306;2022-12-28T09:01:10;3.20;98.30
8707;DHT22;4390;49.302;9.306;2022-12-28T09:03:40;3.30;98.30
8707;DHT22;4390;49.302;9.306;2022-12-28T09:06:10;3.50;98.30
8707;DHT22;4390;49.302;9.306;2022-12-28T09:08:37;3.60;98.30
8707;DHT22;4390;49.302;9.306;2022-12-28T09:11:06;3.50;98.30
8707;DHT22;4390;49.302;9.306;2022-12-28T09:13:33;3.40;98.30
8707;DHT22;4390;49.302;9.306;2022-12-28T09:16:03;3.30;98.30
8707;DHT22;4390;49.302;9.306;2022-12-28T09:18:30;3.50;98.30
8707;DHT22;4390;49.302;9.306;2022-12-28T09:21:07;3.50;98.30
8707;DHT22;4390;49.302;9.306;2022-12-28T09:23:35;3.60;98.30
8707;DHT22;4390;49.302;9.306;2022-12-28T09:26:03;3.70;98.30
8707;DHT22;4390;49.302;9.306;2022-12-28T09:28:30;3.80;98.30
8707;DHT22;4390;49.302;9.306;2022-12-28T09:30:57;3.80;98.30
8707;DHT22;4390;49.302;9.306;2022-12-28T09:33:26;3.90;98.30
8707;DHT22;4390;49.302;9.306;2022-12-28T09:36:36;4.20;98.30
8707;DHT22;4390;49.302;9.306;2022-12-28T09:39:06;4.10;98.20
8707;DHT22;4390;49.302;9.306;2022-12-28T09:49:56;4.40;98.30
8707;DHT22;4390;49.302;9.306;2022-12-28T09:52:35;4.50;98.30
8707;DHT22;4390;49.302;9.306;2022-12-28T09:55:11;4.70;98.30
8707;DHT22;4390;49.302;9.306;2022-12-28T09:57:42;4.70;98.30
8707;DHT22;4390;49.302;9.306;2022-12-28T10:00:16;4.80;98.30
8707;DHT22;4390;49.302;9.306;2022-12-28T10:02:47;4.70;98.30
8707;DHT22;4390;49.302;9.306;2022-12-28T10:05:15;4.80;98.30
8707;DHT22;4390;49.302;9.306;2022-12-28T10:07:42;4.90;98.30
8707;DHT22;4390;49.302;9.306;2022-12-28T10:10:14;4.90;98.30
8707;DHT22;4390;49.302;9.306;2022-12-28T10:12:43;5.00;98.30
8707;DHT22;4390;49.302;9.306;2022-12-28T10:15:12;5.10;98.30
8707;DHT22;4390;49.302;9.306;2022-12-28T10:17:40;5.30;98.30
8707;DHT22;4390;49.302;9.306;2022-12-28T10:20:14;5.30;98.30
8707;DHT22;4390;49.302;9.306;2022-12-28T10:22:42;5.30;98.30
8707;DHT22;4390;49.302;9.306;2022-12-28T10:25:18;5.40;98.30
8707;DHT22;4390;49.302;9.306;2022-12-28T10:27:46;5.80;98.30
8707;DHT22;4390;49.302;9.306;2022-12-28T10:30:20;6.40;96.90
8707;DHT22;4390;49.302;9.306;2022-12-28T10:33:01;6.60;96.70
8707;DHT22;4390;49.302;9.306;2022-12-28T10:35:40;6.80;96.10
8707;DHT22;4390;49.302;9.306;2022-12-28T10:38:27;7.30;95.10
8707;DHT22;4390;49.302;9.306;2022-12-28T10:40:59;7.50;94.30
8707;DHT22;4390;49.302;9.306;2022-12-28T10:43:28;7.60;93.70
8707;DHT22;4390;49.302;9.306;2022-12-28T10:45:57;7.60;93.00
8707;DHT22;4390;49.302;9.306;2022-12-28T10:48:29;7.60;93.10
8707;DHT22;4390;49.302;9.306;2022-12-28T10:53:47;8.00;93.20
8707;DHT22;4390;49.302;9.306;2022-12-28T10:56:19;9.00;92.00
8707;DHT22;4390;49.302;9.306;2022-12-28T10:58:52;9.00;90.70
8707;DHT22;4390;49.302;9.306;2022-12-28T11:01:27;9.10;90.20
8707;DHT22;4390;49.302;9.306;2022-12-28T11:06:24;9.40;90.30
8707;DHT22;4390;49.302;9.306;2022-12-28T11:11:39;9.00;90.40
8707;DHT22;4390;49.302;9.306;2022-12-28T11:14:12;8.90;90.80
8707;DHT22;4390;49.302;9.306;2022-12-28T11:16:40;9.20;90.00
8707;DHT22;4390;49.302;9.306;2022-12-28T11:19:07;9.30;89.70
8707;DHT22;4390;49.302;9.306;2022-12-28T11:21:36;9.10;89.30
8707;DHT22;4390;49.302;9.306;2022-12-28T11:24:03;9.00;89.90
8707;DHT22;4390;49.302;9.306;2022-12-28T11:26:31;8.80;89.90
8707;DHT22;4390;49.302;9.306;2022-12-28T11:28:59;8.60;89.90
8707;DHT22;4390;49.302;9.306;2022-12-28T11:31:31;8.70;90.20
8707;DHT22;4390;49.302;9.306;2022-12-28T11:34:01;9.10;90.40
8707;DHT22;4390;49.302;9.306;2022-12-28T11:36:32;9.30;88.90
8707;DHT22;4390;49.302;9.306;2022-12-28T11:41:54;9.30;89.00
8707;DHT22;4390;49.302;9.306;2022-12-28T11:49:45;9.40;89.60
8707;DHT22;4390;49.302;9.306;2022-12-28T11:57:48;9.60;88.80
8707;DHT22;4390;49.302;9.306;2022-12-28T12:03:00;9.40;88.90
8707;DHT22;4390;49.302;9.306;2022-12-28T12:10:41;9.20;89.50
8707;DHT22;4390;49.302;9.306;2022-12-28T12:15:57;9.20;89.50
8707;DHT22;4390;49.302;9.306;2022-12-28T12:18:27;9.20;89.40
8707;DHT22;4390;49.302;9.306;2022-12-28T12:21:06;9.10;89.70
8707;DHT22;4390;49.302;9.306;2022-12-28T12:23:48;9.00;89.70
8707;DHT22;4390;49.302;9.306;2022-12-28T12:26:37;9.00;90.10
8707;DHT22;4390;49.302;9.306;2022-12-28T12:29:14;9.00;90.20
8707;DHT22;4390;49.302;9.306;2022-12-28T12:31:46;9.00;90.30
8707;DHT22;4390;49.302;9.306;2022-12-28T12:34:19;9.00;90.30
8707;DHT22;4390;49.302;9.306;2022-12-28T12:43:06;8.90;90.50
8707;DHT22;4390;49.302;9.306;2022-12-28T12:51:21;8.80;91.10
8707;DHT22;4390;49.302;9.306;2022-12-28T12:54:07;9.30;90.50
8707;DHT22;4390;49.302;9.306;2022-12-28T12:56:59;9.60;89.80
8707;DHT22;4390;49.302;9.306;2022-12-28T13:05:25;10.50;88.30
8707;DHT22;4390;49.302;9.306;2022-12-28T13:07:53;10.60;88.30
8707;DHT22;4390;49.302;9.306;2022-12-28T13:10:42;10.80;87.00
8707;DHT22;4390;49.302;9.306;2022-12-28T13:13:18;10.70;87.10
8707;DHT22;4390;49.302;9.306;2022-12-28T13:15:47;10.70;87.50
8707;DHT22;4390;49.302;9.306;2022-12-28T13:18:16;10.50;87.10
8707;DHT22;4390;49.302;9.306;2022-12-28T13:21:05;10.40;87.30
8707;DHT22;4390;49.302;9.306;2022-12-28T13:23:43;10.40;87.70
8707;DHT22;4390;49.302;9.306;2022-12-28T13:26:11;10.30;87.90
8707;DHT22;4390;49.302;9.306;2022-12-28T13:28:49;10.30;87.70
8707;DHT22;4390;49.302;9.306;2022-12-28T13:31:22;10.50;87.70
8707;DHT22;4390;49.302;9.306;2022-12-28T13:34:23;10.40;87.60
8707;DHT22;4390;49.302;9.306;2022-12-28T13:39:25;10.40;87.50
8707;DHT22;4390;49.302;9.306;2022-12-28T13:42:02;10.30;87.80
8707;DHT22;4390;49.302;9.306;2022-12-28T13:44:54;10.30;87.80
8707;DHT22;4390;49.302;9.306;2022-12-28T13:47:32;10.10;88.40
8707;DHT22;4390;49.302;9.306;2022-12-28T13:50:11;10.00;88.40
8707;DHT22;4390;49.302;9.306;2022-12-28T13:52:45;9.90;88.60
8707;DHT22;4390;49.302;9.306;2022-12-28T13:55:17;9.90;88.70
8707;DHT22;4390;49.302;9.306;2022-12-28T13:57:49;9.70;89.00
8707;DHT22;4390;49.302;9.306;2022-12-28T14:00:24;9.80;89.70
8707;DHT22;4390;49.302;9.306;2022-12-28T14:02:54;9.80;90.30
8707;DHT22;4390;49.302;9.306;2022-12-28T14:05:24;9.80;89.10
8707;DHT22;4390;49.302;9.306;2022-12-28T14:07:53;9.70;89.40
8707;DHT22;4390;49.302;9.306;2022-12-28T14:10:21;9.60;89.10
8707;DHT22;4390;49.302;9.306;2022-12-28T14:12:49;9.30;89.40
8707;DHT22;4390;49.302;9.306;2022-12-28T14:15:16;9.10;89.90
8707;DHT22;4390;49.302;9.306;2022-12-28T14:17:45;9.00;91.10
8707;DHT22;4390;49.302;9.306;2022-12-28T14:20:13;8.80;91.70
8707;DHT22;4390;49.302;9.306;2022-12-28T14:22:40;8.80;91.60
8707;DHT22;4390;49.302;9.306;2022-12-28T14:25:18;8.80;91.70
8707;DHT22;4390;49.302;9.306;2022-12-28T14:27:57;8.80;91.10
8707;DHT22;4390;49.302;9.306;2022-12-28T14:30:31;8.80;91.10
8707;DHT22;4390;49.302;9.306;2022-12-28T14:36:01;9.00;89.80
8707;DHT22;4390;49.302;9.306;2022-12-28T14:38:36;8.90;89.90
8707;DHT22;4390;49.302;9.306;2022-12-28T14:41:05;8.80;90.30
8707;DHT22;4390;49.302;9.306;2022-12-28T14:43:35;8.70;90.60
8707;DHT22;4390;49.302;9.306;2022-12-28T14:46:27;8.50;91.10
8707;DHT22;4390;49.302;9.306;2022-12-28T14:48:55;8.50;91.40
8707;DHT22;4390;49.302;9.306;2022-12-28T14:54:13;8.50;91.00
8707;DHT22;4390;49.302;9.306;2022-12-28T14:56:47;8.40;91.50
8707;DHT22;4390;49.302;9.306;2022-12-28T14:59:23;8.40;92.20
8707;DHT22;4390;49.302;9.306;2022-12-28T15:01:50;8.40;91.90
8707;DHT22;4390;49.302;9.306;2022-12-28T15:04:34;8.50;92.10
8707;DHT22;4390;49.302;9.306;2022-12-28T15:07:09;8.40;92.50
8707;DHT22;4390;49.302;9.306;2022-12-28T15:09:37;8.10;93.70
8707;DHT22;4390;49.302;9.306;2022-12-28T15:12:16;7.90;94.30
8707;DHT22;4390;49.302;9.306;2022-12-28T15:14:43;7.80;94.70
8707;DHT22;4390;49.302;9.306;2022-12-28T15:17:10;7.80;94.80
8707;DHT22;4390;49.302;9.306;2022-12-28T15:19:37;7.70;95.20
8707;DHT22;4390;49.302;9.306;2022-12-28T15:22:04;7.70;95.10
8707;DHT22;4390;49.302;9.306;2022-12-28T15:24:32;7.60;95.40
8707;DHT22;4390;49.302;9.306;2022-12-28T15:27:01;7.50;95.80
8707;DHT22;4390;49.302;9.306;2022-12-28T15:29:28;7.50;95.90
8707;DHT22;4390;49.302;9.306;2022-12-28T15:32:15;7.40;96.10
8707;DHT22;4390;49.302;9.306;2022-12-28T15:34:41;7.30;96.40
8707;DHT22;4390;49.302;9.306;2022-12-28T15:37:08;7.30;96.50
8707;DHT22;4390;49.302;9.306;2022-12-28T15:39:35;7.30;96.70
8707;DHT22;4390;49.302;9.306;2022-12-28T15:42:01;7.10;97.20
8707;DHT22;4390;49.302;9.306;2022-12-28T15:44:28;7.00;97.40
8707;DHT22;4390;49.302;9.306;2022-12-28T15:46:55;7.00;97.50
8707;DHT22;4390;49.302;9.306;2022-12-28T15:49:21;7.00;97.60
8707;DHT22;4390;49.302;9.306;2022-12-28T15:51:48;6.90;97.80
8707;DHT22;4390;49.302;9.306;2022-12-28T15:54:15;6.90;98.00
8707;DHT22;4390;49.302;9.306;2022-12-28T15:56:42;6.80;97.90
8707;DHT22;4390;49.302;9.306;2022-12-28T15:59:13;6.70;98.10
8707;DHT22;4390;49.302;9.306;2022-12-28T16:01:42;6.70;98.00
8707;DHT22;4390;49.302;9.306;2022-12-28T16:04:10;6.60;98.10
8707;DHT22;4390;49.302;9.306;2022-12-28T16:06:37;6.60;98.20
8707;DHT22;4390;49.302;9.306;2022-12-28T16:09:11;6.50;98.30
8707;DHT22;4390;49.302;9.306;2022-12-28T16:11:39;6.40;98.30
8707;DHT22;4390;49.302;9.306;2022-12-28T16:14:07;6.40;98.30
8707;DHT22;4390;49.302;9.306;2022-12-28T16:16:37;6.30;98.30
8707;DHT22;4390;49.302;9.306;2022-12-28T16:19:05;6.20;98.30
8707;DHT22;4390;49.302;9.306;2022-12-28T16:21:32;6.20;98.30
8707;DHT22;4390;49.302;9.306;2022-12-28T16:23:59;6.40;98.30
8707;DHT22;4390;49.302;9.306;2022-12-28T16:26:27;6.30;98.30
8707;DHT22;4390;49.302;9.306;2022-12-28T16:28:54;6.20;98.30
8707;DHT22;4390;49.302;9.306;2022-12-28T16:31:23;6.10;98.30
8707;DHT22;4390;49.302;9.306;2022-12-28T16:33:59;6.10;98.30
8707;DHT22;4390;49.302;9.306;2022-12-28T16:36:26;6.40;98.30
8707;DHT22;4390;49.302;9.306;2022-12-28T16:38:55;6.20;98.30
8707;DHT22;4390;49.302;9.306;2022-12-28T16:41:23;6.40;98.30
8707;DHT22;4390;49.302;9.306;2022-12-28T16:43:50;6.40;98.00
8707;DHT22;4390;49.302;9.306;2022-12-28T16:46:17;6.30;98.30
8707;DHT22;4390;49.302;9.306;2022-12-28T16:48:44;6.20;98.10
8707;DHT22;4390;49.302;9.306;2022-12-28T16:51:11;6.10;98.20
8707;DHT22;4390;49.302;9.306;2022-12-28T16:53:38;6.20;98.30
8707;DHT22;4390;49.302;9.306;2022-12-28T16:56:05;6.20;98.00
8707;DHT22;4390;49.302;9.306;2022-12-28T16:58:32;6.10;98.20
8707;DHT22;4390;49.302;9.306;2022-12-28T17:01:07;6.10;98.20
8707;DHT22;4390;49.302;9.306;2022-12-28T17:03:35;6.00;98.30
8707;DHT22;4390;49.302;9.306;2022-12-28T17:06:02;5.90;98.30
8707;DHT22;4390;49.302;9.306;2022-12-28T17:08:30;5.80;98.30
8707;DHT22;4390;49.302;9.306;2022-12-28T17:10:56;5.90;98.30
8707;DHT22;4390;49.302;9.306;2022-12-28T17:13:23;5.80;98.30
8707;DHT22;4390;49.302;9.306;2022-12-28T17:15:50;5.80;98.30
8707;DHT22;4390;49.302;9.306;2022-12-28T17:18:16;5.90;98.30
8707;DHT22;4390;49.302;9.306;2022-12-28T17:20:44;5.80;98.30
8707;DHT22;4390;49.302;9.306;2022-12-28T17:23:11;5.70;98.30
8707;DHT22;4390;49.302;9.306;2022-12-28T17:25:39;5.70;98.30
8707;DHT22;4390;49.302;9.306;2022-12-28T17:28:05;5.80;98.30
8707;DHT22;4390;49.302;9.306;2022-12-28T17:30:32;5.80;98.30
8707;DHT22;4390;49.302;9.306;2022-12-28T17:32:59;5.90;98.30
8707;DHT22;4390;49.302;9.306;2022-12-28T17:35:26;6.10;98.30
8707;DHT22;4390;49.302;9.306;2022-12-28T17:37:53;6.20;98.20
8707;DHT22;4390;49.302;9.306;2022-12-28T17:40:20;6.30;98.10
8707;DHT22;4390;49.302;9.306;2022-12-28T17:42:47;6.40;97.80
8707;DHT22;4390;49.302;9.306;2022-12-28T17:45:13;6.30;97.80
8707;DHT22;4390;49.302;9.306;2022-12-28T17:47:40;6.20;97.80
8707;DHT22;4390;49.302;9.306;2022-12-28T17:50:07;6.30;97.80
8707;DHT22;4390;49.302;9.306;2022-12-28T17:52:34;6.50;97.40
8707;DHT22;4390;49.302;9.306;2022-12-28T17:55:01;6.60;97.00
8707;DHT22;4390;49.302;9.306;2022-12-28T17:57:28;6.40;97.30
8707;DHT22;4390;49.302;9.306;2022-12-28T18:00:03;6.40;97.50
8707;DHT22;4390;49.302;9.306;2022-12-28T18:02:37;6.40;97.60
8707;DHT22;4390;49.302;9.306;2022-12-28T18:05:05;6.30;97.80
8707;DHT22;4390;49.302;9.306;2022-12-28T18:07:32;6.50;97.30
8707;DHT22;4390;49.302;9.306;2022-12-28T18:09:59;6.40;97.40